Time;durP1;ratioP1;P1;durP2;ratioP2;P2;SDS_P1;SDS_P2;PMS_P1;PMS_P2;Temp;Humidity;BMP_temperature;BMP_pressure;BME280_temperature;BME280_humidity;BME280_pressure;Samples;Min_cycle;Max_cycle;Signal;HPM_P1;HPM_P2
2022/05/30 00:00:18;;;;;;;3.95;1.95;;;5.60;99.90;;;;;;4915598;29;20238;-80
2022/05/30 00:02:43;;;;;;;5.65;2.38;;;5.50;99.90;;;;;;4909894;29;20178;-79
2022/05/30 00:05:11;;;;;;;6.13;2.10;;;5.40;99.90;;;;;;4914152;29;20209;-82
2022/05/30 00:07:37;;;;;;;8.57;2.00;;;5.40;99.90;;;;;;4924531;29;20711;-80
2022/05/30 00:10:04;;;;;;;4.95;2.00;;;5.40;99.90;;;;;;4911519;29;20190;-81
2022/05/30 00:12:30;;;;;;;5.15;1.80;;;5.30;99.90;;;;;;4917602;29;20272;-81
2022/05/30 00:14:56;;;;;;;3.33;1.80;;;;;;;;;;4919006;29;20229;-81
2022/05/30 00:17:21;;;;;;;4.27;1.97;;;5.30;99.90;;;;;;4914861;29;20181;-81
2022/05/30 00:19:47;;;;;;;5.07;2.37;;;5.30;99.90;;;;;;4910285;29;20839;-81
2022/05/30 00:22:14;;;;;;;3.90;1.53;;;5.30;99.90;;;;;;4914997;29;20264;-81
2022/05/30 00:24:41;;;;;;;3.10;2.72;;;5.30;99.90;;;;;;4907097;29;20273;-82
2022/05/30 00:27:07;;;;;;;4.13;1.98;;;5.30;99.90;;;;;;4911227;29;20193;-79
2022/05/30 00:29:33;;;;;;;2.60;1.90;;;5.30;99.90;;;;;;4907281;29;20197;-80
2022/05/30 00:31:58;;;;;;;4.43;1.97;;;5.30;99.90;;;;;;4909695;29;20221;-79
2022/05/30 00:34:25;;;;;;;4.13;2.37;;;5.20;99.90;;;;;;4910084;29;20182;-81
2022/05/30 00:36:50;;;;;;;3.63;2.13;;;5.20;99.90;;;;;;4911423;29;20212;-78
2022/05/30 00:39:16;;;;;;;7.70;2.10;;;;;;;;;;4908136;29;20214;-79
2022/05/30 00:41:42;;;;;;;7.20;2.20;;;5.20;99.90;;;;;;4911602;29;20615;-80
2022/05/30 00:44:08;;;;;;;3.13;2.13;;;5.20;99.90;;;;;;4917676;29;20451;-80
2022/05/30 00:46:34;;;;;;;2.87;2.60;;;5.30;99.90;;;;;;4910089;29;20202;-80
2022/05/30 00:49:03;;;;;;;4.93;2.07;;;5.20;99.90;;;;;;4912461;29;20440;-79
2022/05/30 00:51:57;;;;;;;5.45;2.25;;;5.30;99.90;;;;;;4911014;29;20330;-81
2022/05/30 00:54:32;;;;;;;2.30;1.85;;;5.30;99.90;;;;;;4905062;29;20261;-79
2022/05/30 00:57:01;;;;;;;2.33;1.83;;;5.30;99.90;;;;;;4915384;29;20214;-79
2022/05/30 00:59:27;;;;;;;2.67;2.20;;;5.20;99.90;;;;;;4913755;29;20205;-80
2022/05/30 01:01:52;;;;;;;6.20;2.50;;;5.20;99.90;;;;;;4911388;29;20551;-79
2022/05/30 01:07:08;;;;;;;4.25;2.03;;;5.20;99.90;;;;;;4916244;29;20258;-80
2022/05/30 01:09:36;;;;;;;4.03;2.30;;;5.20;99.90;;;;;;4914210;29;20174;-80
2022/05/30 01:12:11;;;;;;;6.20;2.45;;;5.10;99.90;;;;;;4911250;29;20222;-79
2022/05/30 01:14:42;;;;;;;3.80;2.42;;;5.00;99.90;;;;;;4920864;29;20174;-80
2022/05/30 01:17:12;;;;;;;3.45;2.25;;;5.00;99.90;;;;;;4920753;29;20636;-79
2022/05/30 01:19:51;;;;;;;2.53;2.08;;;4.90;99.90;;;;;;4936060;29;20220;-80
2022/05/30 01:22:35;;;;;;;4.15;2.60;;;4.90;99.90;;;;;;4910215;29;20193;-80
2022/05/30 01:25:38;;;;;;;4.75;2.13;;;4.70;99.90;;;;;;4918848;29;20568;-79
2022/05/30 01:28:22;;;;;;;6.53;2.00;;;4.70;99.90;;;;;;4925416;29;20193;-81
2022/05/30 01:30:49;;;;;;;6.95;2.63;;;4.70;99.90;;;;;;4915370;29;20224;-81
2022/05/30 01:33:16;;;;;;;6.22;2.70;;;4.70;99.90;;;;;;4925416;29;20216;-79
2022/05/30 01:35:42;;;;;;;4.57;2.50;;;4.70;99.90;;;;;;4921819;29;20212;-80
2022/05/30 01:38:07;;;;;;;8.07;2.40;;;4.80;99.90;;;;;;4918096;29;21155;-80
2022/05/30 01:40:33;;;;;;;7.80;2.33;;;4.80;99.90;;;;;;4925996;29;20206;-82
2022/05/30 01:42:59;;;;;;;2.67;2.43;;;4.80;99.90;;;;;;4919041;29;20189;-80
2022/05/30 01:45:26;;;;;;;7.00;3.50;;;4.70;99.90;;;;;;4915588;29;20455;-79
2022/05/30 01:47:51;;;;;;;4.45;2.47;;;4.80;99.90;;;;;;4916188;29;20233;-80
2022/05/30 01:50:18;;;;;;;7.40;2.50;;;4.70;99.90;;;;;;4922768;29;20766;-81
2022/05/30 01:52:44;;;;;;;4.47;2.05;;;4.70;99.90;;;;;;4927759;29;20468;-80
2022/05/30 01:55:10;;;;;;;4.07;2.50;;;4.60;99.90;;;;;;4914294;29;20208;-80
2022/05/30 01:57:37;;;;;;;5.05;2.10;;;4.60;99.90;;;;;;4914520;29;20560;-79
2022/05/30 02:00:05;;;;;;;6.30;3.15;;;4.60;99.90;;;;;;4916632;29;20237;-80
2022/05/30 02:02:30;;;;;;;7.07;3.22;;;4.60;99.90;;;;;;4913181;29;20211;-80
2022/05/30 02:04:56;;;;;;;5.07;2.80;;;4.60;99.90;;;;;;4918572;29;20264;-80
2022/05/30 02:07:22;;;;;;;4.40;2.90;;;4.70;99.90;;;;;;4919225;29;20659;-80
2022/05/30 02:09:47;;;;;;;4.33;3.00;;;4.70;99.90;;;;;;4915574;29;20698;-80
2022/05/30 02:12:13;;;;;;;10.60;3.80;;;4.60;99.90;;;;;;4921398;29;20646;-82
2022/05/30 02:14:38;;;;;;;3.97;3.57;;;4.50;99.90;;;;;;4922887;29;20261;-79
2022/05/30 02:17:06;;;;;;;6.23;3.60;;;4.50;99.90;;;;;;4915630;29;20190;-81
2022/05/30 02:19:35;;;;;;;4.10;2.70;;;4.40;99.90;;;;;;4911079;29;20197;-81
2022/05/30 02:22:01;;;;;;;5.57;2.60;;;4.40;99.90;;;;;;4922935;29;20181;-84
2022/05/30 02:24:27;;;;;;;6.60;3.47;;;4.30;99.90;;;;;;4930221;29;20927;-81
2022/05/30 02:26:53;;;;;;;6.63;2.95;;;4.30;99.90;;;;;;4927663;29;20710;-81
2022/05/30 02:29:19;;;;;;;4.10;2.87;;;;;;;;;;4920063;29;20206;-82
2022/05/30 02:31:45;;;;;;;5.40;2.78;;;4.20;99.90;;;;;;4904133;29;20189;-83
2022/05/30 02:36:56;;;;;;;8.73;3.30;;;4.20;99.90;;;;;;4911355;29;20576;-85
2022/05/30 02:39:23;;;;;;;3.90;3.15;;;4.30;99.90;;;;;;4908538;29;20197;-83
2022/05/30 02:41:49;;;;;;;9.80;3.00;;;4.20;99.90;;;;;;4908616;29;20213;-84
2022/05/30 02:44:19;;;;;;;4.72;3.42;;;4.30;99.90;;;;;;4911751;29;20177;-83
2022/05/30 02:46:45;;;;;;;4.07;2.92;;;4.30;99.90;;;;;;4908657;29;20921;-85
2022/05/30 02:49:11;;;;;;;5.88;2.95;;;4.30;99.90;;;;;;4909284;29;20181;-84
2022/05/30 02:51:37;;;;;;;4.07;2.80;;;;;;;;;;4911381;29;20217;-85
2022/05/30 02:54:03;;;;;;;4.20;2.45;;;4.20;99.90;;;;;;4912913;29;20229;-84
2022/05/30 02:56:29;;;;;;;9.38;3.13;;;4.20;99.90;;;;;;4911544;29;20287;-85
2022/05/30 02:58:58;;;;;;;5.97;4.65;;;4.20;99.90;;;;;;4914718;29;20201;-84
2022/05/30 03:01:24;;;;;;;5.75;4.05;;;4.30;99.90;;;;;;4908380;29;20205;-85
2022/05/30 03:03:50;;;;;;;4.40;3.40;;;4.20;99.90;;;;;;4909653;29;20185;-84
2022/05/30 03:06:16;;;;;;;3.43;2.80;;;4.10;99.90;;;;;;4908800;29;20864;-84
2022/05/30 03:08:42;;;;;;;10.13;3.67;;;;;;;;;;4908661;29;20441;-83
2022/05/30 03:11:08;;;;;;;5.68;3.28;;;4.10;99.90;;;;;;4909266;29;20182;-85
2022/05/30 03:13:34;;;;;;;3.80;3.13;;;;;;;;;;4909140;29;20197;-85
2022/05/30 03:15:59;;;;;;;5.53;3.30;;;4.00;99.90;;;;;;4908494;29;20743;-85
2022/05/30 03:18:26;;;;;;;5.67;3.10;;;4.00;99.90;;;;;;4910358;29;20178;-85
2022/05/30 03:20:51;;;;;;;4.22;3.70;;;4.00;99.90;;;;;;4904569;29;20237;-83
2022/05/30 03:23:17;;;;;;;3.60;2.87;;;;;;;;;;4905562;29;20174;-82
2022/05/30 03:25:42;;;;;;;8.90;3.90;;;4.10;99.90;;;;;;4904343;29;20206;-83
2022/05/30 03:28:08;;;;;;;5.40;4.30;;;4.10;99.90;;;;;;4902336;29;20942;-82
2022/05/30 03:30:36;;;;;;;10.10;5.23;;;4.20;99.90;;;;;;4903560;29;20198;-83
2022/05/30 03:33:04;;;;;;;8.30;5.10;;;4.30;99.90;;;;;;4905180;29;20553;-83
2022/05/30 03:35:30;;;;;;;9.57;5.25;;;4.40;99.90;;;;;;4910115;29;20210;-83
2022/05/30 03:37:56;;;;;;;8.57;4.57;;;4.40;99.90;;;;;;4904049;29;20241;-83
2022/05/30 03:40:21;;;;;;;7.00;5.87;;;4.50;99.90;;;;;;4905364;29;20599;-83
2022/05/30 03:42:47;;;;;;;6.50;4.33;;;4.50;99.90;;;;;;4902282;29;20232;-84
2022/05/30 03:45:13;;;;;;;6.10;3.63;;;4.70;99.90;;;;;;4903916;29;20283;-83
2022/05/30 03:47:44;;;;;;;8.38;3.70;;;4.70;99.90;;;;;;4903143;29;20187;-83
2022/05/30 03:50:17;;;;;;;6.10;3.92;;;4.80;99.90;;;;;;4908624;29;20202;-83
2022/05/30 03:52:42;;;;;;;4.80;2.85;;;4.60;99.90;;;;;;4907226;29;20552;-84
2022/05/30 03:55:11;;;;;;;7.97;4.27;;;4.60;99.90;;;;;;4906459;29;20222;-83
2022/05/30 03:57:38;;;;;;;5.50;3.75;;;4.60;99.90;;;;;;4909269;29;21077;-83
2022/05/30 04:00:04;;;;;;;8.57;3.60;;;4.70;99.90;;;;;;4901701;29;20194;-82
2022/05/30 04:02:30;;;;;;;5.60;3.55;;;4.90;99.90;;;;;;4904162;29;20198;-82
2022/05/30 04:04:55;;;;;;;9.43;5.87;;;4.90;99.90;;;;;;4906442;29;20182;-82
2022/05/30 04:07:21;;;;;;;5.67;4.00;;;4.90;99.90;;;;;;4905704;29;20183;-81
2022/05/30 04:09:47;;;;;;;8.50;4.55;;;5.00;99.90;;;;;;4904670;29;20276;-82
2022/05/30 04:12:12;;;;;;;5.87;4.70;;;5.30;99.90;;;;;;4905919;29;20221;-87
2022/05/30 04:14:39;;;;;;;5.47;4.00;;;;;;;;;;4912662;29;20221;-87
2022/05/30 04:17:05;;;;;;;6.03;3.70;;;6.10;99.90;;;;;;4916198;29;20195;-87
2022/05/30 04:19:31;;;;;;;8.20;3.30;;;7.80;99.90;;;;;;4912490;29;20260;-87
2022/05/30 04:21:57;;;;;;;8.60;3.60;;;;;;;;;;4919282;29;20445;-90
2022/05/30 04:24:22;;;;;;;5.13;2.43;;;12.00;99.90;;;;;;4910570;29;20469;-87
2022/05/30 04:26:48;;;;;;;4.03;2.53;;;;;;;;;;4908075;29;20458;-84
2022/05/30 04:29:14;;;;;;;3.20;2.13;;;15.90;99.90;;;;;;4907729;29;20198;-84
2022/05/30 04:31:39;;;;;;;2.97;2.30;;;17.10;99.90;;;;;;4907512;29;20450;-84
2022/05/30 04:34:07;;;;;;;4.80;1.80;;;18.10;99.90;;;;;;4905486;29;20221;-86
2022/05/30 04:36:33;;;;;;;6.90;2.50;;;18.80;99.90;;;;;;4904902;29;20691;-85
2022/05/30 04:38:59;;;;;;;3.03;2.10;;;;;;;;;;4906110;29;20585;-84
2022/05/30 04:41:25;;;;;;;6.97;2.20;;;;;;;;;;4906040;29;20446;-83
2022/05/30 04:43:51;;;;;;;3.70;2.13;;;;;;;;;;4905936;29;20473;-84
2022/05/30 04:46:21;;;;;;;4.67;2.63;;;25.40;95.00;;;;;;4904853;29;20803;-86
2022/05/30 04:48:47;;;;;;;2.77;2.03;;;;;;;;;;4908328;29;20510;-85
2022/05/30 04:51:13;;;;;;;5.10;2.33;;;;;;;;;;4912762;29;20485;-83
2022/05/30 04:53:40;;;;;;;7.93;3.10;;;;;;;;;;4906249;29;20536;-84
2022/05/30 04:56:06;;;;;;;6.97;3.03;;;;;;;;;;4911588;29;20955;-85
2022/05/30 04:58:34;;;;;;;3.57;2.53;;;;;;;;;;4905094;29;20533;-84
2022/05/30 05:01:02;;;;;;;2.63;2.17;;;26.20;72.20;;;;;;4904741;29;20929;-85
2022/05/30 05:03:30;;;;;;;5.20;2.30;;;25.10;73.30;;;;;;4903566;29;20866;-87
2022/05/30 05:06:08;;;;;;;3.87;2.63;;;25.20;65.00;;;;;;4901567;29;20481;-86
2022/05/30 05:08:55;;;;;;;7.30;3.10;;;25.70;59.20;;;;;;4900378;29;20819;-87
2022/05/30 05:11:26;;;;;;;3.30;3.00;;;25.40;69.20;;;;;;4902184;29;20536;-85
2022/05/30 05:13:52;;;;;;;4.80;2.80;;;;;;;;;;4899569;29;20481;-87
2022/05/30 05:16:20;;;;;;;4.30;2.80;;;26.70;55.90;;;;;;4910666;29;20800;-87
2022/05/30 05:18:46;;;;;;;4.03;2.33;;;;;;;;;;4902754;29;20506;-87
2022/05/30 05:21:17;;;;;;;3.80;2.17;;;27.00;54.40;;;;;;4900355;29;20523;-87
2022/05/30 05:23:43;;;;;;;4.40;2.30;;;;;;;;;;4902932;29;20470;-86
2022/05/30 05:26:09;;;;;;;7.23;2.93;;;;;;;;;;4897168;29;20482;-86
2022/05/30 05:28:35;;;;;;;3.50;3.03;;;27.40;54.80;;;;;;4902853;29;20807;-86
2022/05/30 05:31:01;;;;;;;4.87;2.73;;;;;;;;;;4898232;29;20412;-86
2022/05/30 05:33:27;;;;;;;4.30;2.70;;;;;;;;;;4898520;29;20223;-86
2022/05/30 05:35:53;;;;;;;4.17;2.83;;;;;;;;;;4900593;29;20463;-86
2022/05/30 05:38:19;;;;;;;3.50;2.30;;;;;;;;;;4898356;29;20444;-86
2022/05/30 05:40:45;;;;;;;4.97;3.83;;;;;;;;;;4898180;29;20476;-87
2022/05/30 05:43:11;;;;;;;5.17;4.53;;;32.70;46.40;;;;;;4897056;29;20440;-86
2022/05/30 05:45:39;;;;;;;6.80;5.00;;;32.60;42.70;;;;;;4898547;29;20462;-86
2022/05/30 05:48:06;;;;;;;6.83;4.50;;;31.60;42.60;;;;;;4891837;29;20439;-87
2022/05/30 05:50:32;;;;;;;5.37;4.97;;;;;;;;;;4900441;29;20998;-86
2022/05/30 05:52:58;;;;;;;5.20;4.80;;;;;;;;;;4900851;29;20446;-85
2022/05/30 05:55:24;;;;;;;5.73;5.30;;;;;;;;;;4903062;29;20491;-86
2022/05/30 05:57:50;;;;;;;5.73;5.13;;;;;;;;;;4898075;29;20964;-86
2022/05/30 06:00:17;;;;;;;6.27;5.57;;;31.50;43.60;;;;;;4905441;29;20476;-86
2022/05/30 06:02:43;;;;;;;5.67;5.17;;;;;;;;;;4899876;29;20498;-87
2022/05/30 06:05:09;;;;;;;6.53;6.03;;;33.80;41.80;;;;;;4900581;29;20971;-86
2022/05/30 06:07:37;;;;;;;6.97;6.43;;;33.20;40.00;;;;;;4899917;29;20493;-87
2022/05/30 06:10:04;;;;;;;7.60;7.00;;;33.20;40.90;;;;;;4902983;29;20867;-87
2022/05/30 06:12:30;;;;;;;10.03;6.50;;;;;;;;;;4902704;29;20449;-87
2022/05/30 06:14:56;;;;;;;6.10;5.60;;;;;;;;;;4901788;29;20509;-87
2022/05/30 06:17:22;;;;;;;7.67;5.90;;;;;;;;;;4906743;29;20441;-87
2022/05/30 06:19:48;;;;;;;7.33;5.90;;;;;;;;;;4904463;29;20470;-87
2022/05/30 06:22:14;;;;;;;7.50;6.50;;;;;;;;;;4905984;29;20448;-87
2022/05/30 06:24:40;;;;;;;6.40;5.80;;;;;;;;;;4901993;29;20434;-87
2022/05/30 06:27:06;;;;;;;7.83;6.30;;;29.30;47.80;;;;;;4907948;29;20438;-87
2022/05/30 06:29:32;;;;;;;6.63;5.67;;;;;;;;;;4901144;29;20488;-86
2022/05/30 06:31:58;;;;;;;6.20;5.70;;;;;;;;;;4899450;29;20450;-86
2022/05/30 06:34:24;;;;;;;6.13;5.53;;;;;;;;;;4901963;29;20905;-87
2022/05/30 06:36:50;;;;;;;5.70;5.20;;;;;;;;;;4902214;29;20830;-86
2022/05/30 06:39:19;;;;;;;6.03;5.33;;;;;;;;;;4899633;29;20458;-86
2022/05/30 06:41:48;;;;;;;6.73;5.77;;;;;;;;;;4900275;29;20443;-86
2022/05/30 06:44:14;;;;;;;12.10;6.00;;;;;;;;;;4907097;29;20496;-87
2022/05/30 06:46:39;;;;;;;6.17;5.40;;;;;;;;;;4905393;29;20467;-87
2022/05/30 06:49:06;;;;;;;5.77;5.37;;;31.50;40.70;;;;;;4899908;29;20532;-87
2022/05/30 06:51:36;;;;;;;7.10;6.40;;;30.10;40.20;;;;;;4897401;29;20973;-87
2022/05/30 06:54:03;;;;;;;8.17;5.40;;;;;;;;;;4897925;29;20449;-87
2022/05/30 06:56:32;;;;;;;5.60;4.87;;;29.50;44.10;;;;;;4895433;29;20522;-87
2022/05/30 06:58:58;;;;;;;6.43;5.00;;;;;;;;;;4894960;29;20540;-87
2022/05/30 07:01:26;;;;;;;5.27;4.77;;;29.50;42.90;;;;;;4899583;29;20454;-87
2022/05/30 07:03:52;;;;;;;5.60;5.03;;;;;;;;;;4906947;29;20527;-87
2022/05/30 07:06:22;;;;;;;5.97;5.37;;;31.80;42.90;;;;;;4896788;29;20463;-87
2022/05/30 07:08:48;;;;;;;6.17;5.43;;;;;;;;;;4897349;29;20450;-87
2022/05/30 07:11:15;;;;;;;6.87;6.30;;;34.70;37.20;;;;;;4900565;29;20430;-87
2022/05/30 07:13:41;;;;;;;7.43;6.73;;;;;;;;;;4896262;29;20447;-86
2022/05/30 07:16:09;;;;;;;9.50;8.73;;;;;;;;;;4900728;29;20518;-86
2022/05/30 07:18:35;;;;;;;8.40;7.80;;;;;;;;;;4899685;29;20547;-87
2022/05/30 07:21:03;;;;;;;8.87;8.17;;;35.50;36.50;;;;;;4899213;29;21105;-86
2022/05/30 07:23:31;;;;;;;13.13;8.50;;;34.10;36.40;;;;;;4902928;29;22270;-87
2022/05/30 07:25:58;;;;;;;9.57;8.80;;;34.60;35.90;;;;;;4899887;29;20619;-86
2022/05/30 07:28:31;;;;;;;9.47;8.93;;;30.90;36.30;;;;;;4907994;29;20448;-86
2022/05/30 07:31:08;;;;;;;8.40;7.70;;;29.90;40.20;;;;;;4899858;29;20465;-86
2022/05/30 07:33:35;;;;;;;7.60;7.10;;;29.00;40.40;;;;;;4898723;29;20970;-86
2022/05/30 07:36:02;;;;;;;7.30;6.80;;;;;;;;;;4900270;29;20458;-86
2022/05/30 07:38:28;;;;;;;8.30;7.00;;;;;;;;;;4907417;29;20530;-87
2022/05/30 07:40:54;;;;;;;10.20;6.00;;;;;;;;;;4899744;29;20473;-86
2022/05/30 07:43:19;;;;;;;9.27;4.37;;;27.40;55.90;;;;;;4898794;29;20455;-87
2022/05/30 07:45:46;;;;;;;4.80;3.00;;;;;;;;;;4897615;29;20807;-87
2022/05/30 07:48:12;;;;;;;4.30;3.50;;;;;;;;;;4901160;29;20643;-87
2022/05/30 07:50:38;;;;;;;5.23;3.50;;;;;;;;;;4898525;29;20452;-87
2022/05/30 07:53:05;;;;;;;4.57;3.20;;;30.10;40.50;;;;;;4905390;29;20458;-87
2022/05/30 07:55:31;;;;;;;5.33;3.73;;;;;;;;;;4897775;29;20467;-87
2022/05/30 07:58:04;;;;;;;8.00;6.37;;;;;;;;;;4893131;29;20495;-88
2022/05/30 08:00:31;;;;;;;8.03;7.30;;;;;;;;;;4897015;29;21101;-88
2022/05/30 08:02:57;;;;;;;7.60;7.10;;;;;;;;;;4900587;29;20448;-87
2022/05/30 08:05:23;;;;;;;7.83;7.13;;;;;;;;;;4907488;29;20466;-86
2022/05/30 08:07:49;;;;;;;6.57;6.07;;;;;;;;;;4899185;29;20790;-86
2022/05/30 08:10:16;;;;;;;7.67;7.00;;;31.30;41.20;;;;;;4897437;29;20457;-86
2022/05/30 08:12:42;;;;;;;7.70;7.10;;;;;;;;;;4900020;29;20958;-87
2022/05/30 08:15:09;;;;;;;8.20;7.53;;;30.60;55.20;;;;;;4906156;29;20465;-86
2022/05/30 08:17:35;;;;;;;7.03;6.53;;;30.10;55.70;;;;;;4899760;29;20707;-87
2022/05/30 08:20:02;;;;;;;6.90;6.30;;;;;;;;;;4896189;29;21072;-87
2022/05/30 08:22:28;;;;;;;8.67;7.77;;;;;;;;;;4899528;29;20808;-87
2022/05/30 08:24:54;;;;;;;9.73;8.70;;;;;;;;;;4898803;29;20482;-87
2022/05/30 08:27:20;;;;;;;9.67;8.97;;;33.90;38.20;;;;;;4899201;29;20892;-86
2022/05/30 08:29:47;;;;;;;9.10;8.50;;;;;;;;;;4944314;23;20506;-86
2022/05/30 08:32:13;;;;;;;10.20;8.30;;;;;;;;;;4938475;29;21011;-86
2022/05/30 08:34:40;;;;;;;9.50;8.60;;;33.40;36.10;;;;;;4932338;28;21001;-84
2022/05/30 08:37:07;;;;;;;8.97;8.37;;;33.90;35.70;;;;;;4927570;29;20449;-87
2022/05/30 08:42:27;;;;;;;9.20;8.50;;;33.70;35.40;;;;;;4934537;29;20465;-85
2022/05/30 08:44:54;;;;;;;9.47;8.83;;;;;;;;;;4931512;29;20455;-86
2022/05/30 08:47:26;;;;;;;9.30;8.13;;;33.50;34.30;;;;;;4923247;29;20438;-85
2022/05/30 08:49:52;;;;;;;8.47;7.87;;;;;;;;;;4930525;29;20452;-87
2022/05/30 08:52:40;;;;;;;8.47;7.80;;;30.90;35.50;;;;;;4928256;29;20478;-86
2022/05/30 08:55:06;;;;;;;10.00;2.97;;;;;;;;;;4915164;29;20445;-86
2022/05/30 08:58:12;;;;;;;4.80;3.27;;;27.40;40.00;;;;;;4941954;28;21452;-86
2022/05/30 09:00:51;;;;;;;4.43;2.10;;;28.90;38.80;;;;;;4921267;29;20694;-84
2022/05/30 09:03:20;;;;;;;6.23;2.33;;;28.70;36.00;;;;;;4925085;29;20461;-85
2022/05/30 09:05:51;;;;;;;3.10;2.00;;;28.60;36.50;;;;;;4929613;29;20439;-85
2022/05/30 09:08:29;;;;;;;5.53;2.50;;;27.50;38.70;;;;;;4934209;29;20442;-85
2022/05/30 09:11:03;;;;;;;3.10;2.60;;;27.50;39.30;;;;;;4930643;29;20941;-83
2022/05/30 09:13:43;;;;;;;4.40;3.27;;;30.00;38.30;;;;;;4931153;29;20486;-85
2022/05/30 09:16:23;;;;;;;7.10;3.37;;;30.50;37.40;;;;;;4936597;29;20436;-86
2022/05/30 09:18:54;;;;;;;2.93;2.33;;;30.40;35.60;;;;;;4917587;29;20974;-84
2022/05/30 09:21:21;;;;;;;3.53;2.90;;;29.20;34.40;;;;;;4924807;29;20440;-87
2022/05/30 09:23:48;;;;;;;7.50;3.10;;;;;;;;;;4926450;28;20515;-87
2022/05/30 09:26:38;;;;;;;2.87;2.47;;;31.00;36.40;;;;;;4924636;29;20445;-86
2022/05/30 09:29:27;;;;;;;4.97;3.00;;;28.70;34.30;;;;;;4921628;29;20468;-85
2022/05/30 09:32:01;;;;;;;5.40;3.10;;;26.80;50.60;;;;;;4958850;23;20578;-90
2022/05/30 09:34:49;;;;;;;3.67;2.20;;;26.50;40.50;;;;;;4936615;29;20466;-89
2022/05/30 09:37:29;;;;;;;3.50;2.57;;;27.00;46.80;;;;;;4928763;29;20424;-89
2022/05/30 09:39:55;;;;;;;6.77;2.70;;;;;;;;;;4922522;29;20598;-88
2022/05/30 09:42:27;;;;;;;3.83;2.53;;;26.70;38.40;;;;;;4940012;29;20830;-89
2022/05/30 09:44:59;;;;;;;4.97;2.70;;;27.40;40.00;;;;;;4948771;28;21297;-89
2022/05/30 09:47:25;;;;;;;4.87;2.40;;;;;;;;;;4943282;29;20432;-86
2022/05/30 09:49:53;;;;;;;5.90;2.20;;;31.60;36.90;;;;;;4947280;29;20503;-88
2022/05/30 09:52:25;;;;;;;2.63;2.23;;;32.10;31.40;;;;;;4940807;29;21034;-89
2022/05/30 09:54:51;;;;;;;3.87;2.37;;;;;;;;;;4937625;29;20524;-90
2022/05/30 09:57:17;;;;;;;9.57;8.53;;;;;;;;;;4940423;29;20697;-89
2022/05/30 09:59:45;;;;;;;10.83;9.50;;;33.90;31.10;;;;;;4946634;29;20739;-88
2022/05/30 10:02:28;;;;;;;8.67;7.90;;;33.60;30.80;;;;;;4949095;28;20455;-88
2022/05/30 10:04:57;;;;;;;9.27;8.87;;;30.70;31.20;;;;;;4940538;29;20436;-88
2022/05/30 10:07:23;;;;;;;7.00;6.50;;;30.00;31.60;;;;;;4950292;29;20420;-88
2022/05/30 10:09:52;;;;;;;6.90;6.40;;;;;;;;;;4941802;29;21214;-90
2022/05/30 10:12:32;;;;;;;7.30;6.90;;;30.20;45.60;;;;;;4948394;28;20478;-91
2022/05/30 10:14:59;;;;;;;8.67;6.70;;;30.40;45.90;;;;;;4947044;29;20493;-90
2022/05/30 10:17:33;;;;;;;5.80;5.30;;;30.60;37.00;;;;;;4948548;29;20447;-89
2022/05/30 10:20:03;;;;;;;5.17;4.77;;;30.80;29.10;;;;;;4941223;29;20477;-90
2022/05/30 10:28:41;;;;;;;5.07;4.77;;;30.70;29.90;;;;;;4938304;29;20496;-91
2022/05/30 10:31:18;;;;;;;5.10;4.70;;;31.10;44.40;;;;;;4937977;29;20458;-89
2022/05/30 10:34:21;;;;;;;4.70;4.40;;;28.30;30.40;;;;;;4940460;29;20440;-89
2022/05/30 10:36:59;;;;;;;4.93;2.90;;;;;;;;;;4942007;29;20417;-90
2022/05/30 10:40:02;;;;;;;3.33;3.00;;;24.70;35.70;;;;;;4941803;29;20475;-88
2022/05/30 10:42:43;;;;;;;6.30;3.20;;;24.00;39.20;;;;;;4939221;29;20555;-90
2022/05/30 10:45:28;;;;;;;3.30;2.40;;;23.50;41.70;;;;;;4938721;29;20544;-90
2022/05/30 10:47:55;;;;;;;4.93;2.50;;;22.30;40.10;;;;;;4935208;29;20465;-89
2022/05/30 10:50:46;;;;;;;3.30;3.00;;;21.20;41.20;;;;;;4946258;29;20446;-89
2022/05/30 10:53:40;;;;;;;2.73;2.50;;;20.20;46.70;;;;;;4941970;29;20968;-89
2022/05/30 10:56:17;;;;;;;2.73;2.47;;;19.50;45.40;;;;;;4939542;29;20977;-88
2022/05/30 10:58:52;;;;;;;2.83;2.30;;;19.20;47.20;;;;;;4936156;29;20450;-89
2022/05/30 11:01:41;;;;;;;7.93;2.30;;;19.50;46.50;;;;;;4944875;28;20467;-88
2022/05/30 11:04:23;;;;;;;6.27;2.30;;;19.20;47.40;;;;;;4948220;29;20492;-89
2022/05/30 11:06:50;;;;;;;8.60;2.57;;;19.30;49.10;;;;;;4941844;29;20481;-89
2022/05/30 11:09:31;;;;;;;3.23;2.93;;;19.50;51.00;;;;;;4940474;29;20436;-88
2022/05/30 11:11:56;;;;;;;3.43;2.70;;;;;;;;;;4941225;29;21053;-89
2022/05/30 11:14:28;;;;;;;3.70;1.87;;;19.60;53.10;;;;;;4938740;29;20512;-91
2022/05/30 11:17:18;;;;;;;5.43;2.40;;;19.90;51.10;;;;;;4947182;29;20531;-89
2022/05/30 11:19:57;;;;;;;6.93;2.40;;;20.40;49.70;;;;;;4944618;29;20913;-88
2022/05/30 11:22:46;;;;;;;3.77;1.60;;;20.80;50.40;;;;;;4943471;28;20445;-89
2022/05/30 11:25:15;;;;;;;4.60;2.20;;;21.50;46.30;;;;;;4964545;28;20441;-87
2022/05/30 11:27:41;;;;;;;3.93;2.47;;;;;;;;;;4949002;28;20514;-89
2022/05/30 11:30:30;;;;;;;2.80;2.23;;;22.20;47.20;;;;;;4941356;28;20449;-87
2022/05/30 11:32:58;;;;;;;4.80;2.27;;;;;;;;;;4940238;29;21031;-86
2022/05/30 11:35:35;;;;;;;5.23;2.93;;;22.80;44.20;;;;;;4940573;29;20548;-89
2022/05/30 11:38:39;;;;;;;3.67;2.30;;;24.00;44.60;;;;;;4944250;29;20449;-87
2022/05/30 11:41:13;;;;;;;3.33;2.50;;;23.80;43.20;;;;;;4941764;28;21012;-88
2022/05/30 11:43:48;;;;;;;3.77;3.10;;;23.90;44.50;;;;;;4936170;29;20440;-89
2022/05/30 11:46:31;;;;;;;3.77;2.30;;;22.70;43.10;;;;;;4946488;29;20482;-88
2022/05/30 11:49:17;;;;;;;3.13;2.30;;;22.40;43.10;;;;;;4938704;29;20440;-87
2022/05/30 11:52:00;;;;;;;4.27;3.13;;;21.40;45.30;;;;;;4940622;28;20554;-88
2022/05/30 11:54:26;;;;;;;3.23;2.70;;;;;;;;;;4940094;29;20451;-86
2022/05/30 11:57:01;;;;;;;2.60;2.40;;;21.80;46.00;;;;;;4937614;29;20540;-89
2022/05/30 11:59:37;;;;;;;2.40;2.10;;;21.80;45.10;;;;;;4941923;29;20853;-87
2022/05/30 12:02:10;;;;;;;4.73;2.80;;;22.20;44.80;;;;;;4941232;28;20808;-88
2022/05/30 12:04:53;;;;;;;2.63;2.17;;;22.70;42.70;;;;;;4936037;28;20442;-89
2022/05/30 12:07:44;;;;;;;3.47;2.33;;;21.70;43.50;;;;;;4944273;29;20451;-88
2022/05/30 12:10:29;;;;;;;5.23;2.37;;;21.20;45.30;;;;;;4955071;29;20454;-87
2022/05/30 12:13:23;;;;;;;5.77;2.80;;;22.00;51.10;;;;;;4941613;28;20501;-88
2022/05/30 12:16:16;;;;;;;4.10;2.20;;;22.90;42.40;;;;;;4904129;28;20445;-89
2022/05/30 12:24:40;;;;;;;3.30;1.90;;;21.50;43.50;;;;;;4938145;29;20495;-87
2022/05/30 12:27:26;;;;;;;4.97;2.20;;;21.80;45.70;;;;;;4934370;28;20452;-87
2022/05/30 12:29:53;;;;;;;4.43;2.30;;;21.30;43.70;;;;;;4922372;29;20433;-87
2022/05/30 12:32:22;;;;;;;7.87;1.80;;;20.90;44.90;;;;;;4938998;28;20482;-89
2022/05/30 12:37:52;;;;;;;3.43;2.53;;;19.90;44.30;;;;;;4929807;29;20964;-88
2022/05/30 12:40:27;;;;;;;2.67;2.13;;;20.00;45.60;;;;;;4926780;29;21098;-87
2022/05/30 12:43:07;;;;;;;3.87;1.73;;;20.00;45.60;;;;;;4940972;28;20968;-90
2022/05/30 12:45:54;;;;;;;3.17;1.80;;;20.40;46.30;;;;;;4933674;29;21079;-88
2022/05/30 12:48:27;;;;;;;4.00;2.17;;;20.40;45.10;;;;;;4934205;29;20428;-88
2022/05/30 12:50:53;;;;;;;1.80;1.70;;;;;;;;;;4935731;28;20468;-87
2022/05/30 12:53:43;;;;;;;3.00;1.60;;;21.30;42.80;;;;;;4925422;28;20433;-86
2022/05/30 12:56:09;;;;;;;2.80;1.60;;;;;;;;;;4935535;29;20455;-89
2022/05/30 12:58:35;;;;;;;4.13;1.90;;;;;;;;;;4927793;29;20440;-88
2022/05/30 13:01:22;;;;;;;3.40;2.20;;;23.00;42.80;;;;;;4925430;28;21951;-90
2022/05/30 13:04:15;;;;;;;2.43;2.20;;;22.10;41.00;;;;;;4935260;29;20445;-89
2022/05/30 13:07:13;;;;;;;4.13;1.70;;;21.60;40.70;;;;;;4935344;29;20478;-88
2022/05/30 13:09:45;;;;;;;3.50;2.30;;;20.90;42.20;;;;;;4935366;29;21047;-89
2022/05/30 13:12:10;;;;;;;2.20;2.00;;;;;;;;;;4935733;28;20472;-87
2022/05/30 13:14:49;;;;;;;2.13;1.67;;;20.60;46.10;;;;;;4933906;28;21073;-88
2022/05/30 13:17:23;;;;;;;2.80;1.90;;;20.20;46.50;;;;;;4944505;29;20855;-88
2022/05/30 13:19:55;;;;;;;2.70;2.00;;;19.70;46.70;;;;;;4947190;28;20483;-87
2022/05/30 13:22:54;;;;;;;4.17;2.50;;;19.00;46.80;;;;;;4938909;29;20467;-89
2022/05/30 13:25:20;;;;;;;5.57;2.63;;;;;;;;;;4940564;29;20502;-88
2022/05/30 13:27:48;;;;;;;3.90;2.07;;;19.20;48.50;;;;;;4932676;28;20442;-85
2022/05/30 13:30:19;;;;;;;2.30;1.80;;;19.20;46.90;;;;;;4934666;29;20835;-87
2022/05/30 13:32:45;;;;;;;3.70;2.00;;;;;;;;;;4926757;28;20489;-87
2022/05/30 13:35:13;;;;;;;6.10;2.40;;;20.40;46.70;;;;;;4940281;29;21014;-88
2022/05/30 13:37:45;;;;;;;2.03;1.60;;;20.70;45.00;;;;;;4932028;29;20472;-89
2022/05/30 13:40:21;;;;;;;5.00;1.90;;;21.00;48.80;;;;;;4965225;28;20468;-85
2022/05/30 13:42:57;;;;;;;5.13;1.93;;;20.30;44.10;;;;;;4959998;28;20487;-86
2022/05/30 13:45:33;;;;;;;5.50;2.10;;;20.50;45.40;;;;;;4936057;29;20473;-88
2022/05/30 13:48:09;;;;;;;2.20;1.60;;;20.50;44.90;;;;;;4935410;29;20496;-88
2022/05/30 13:50:53;;;;;;;5.80;2.00;;;20.60;47.30;;;;;;4937501;29;20489;-88
2022/05/30 13:53:24;;;;;;;2.90;2.07;;;20.70;45.90;;;;;;4932939;29;20455;-90
2022/05/30 13:55:59;;;;;;;3.60;1.80;;;20.90;46.00;;;;;;4933259;29;20452;-89
2022/05/30 13:58:27;;;;;;;3.20;1.60;;;20.80;42.60;;;;;;4935289;29;20480;-88
2022/05/30 14:00:54;;;;;;;2.27;1.80;;;20.70;43.00;;;;;;4945777;29;20519;-87